sensor_id;sensor_type;location;lat;lon;timestamp;pressure;altitude;pressure_sealevel;temperature;humidity
76794;BME280;65745;50.278;18.192;2024-02-28T00:01:04;99718.34;;;7.19;94.32
76794;BME280;65745;50.278;18.192;2024-02-28T00:03:46;99723.73;;;7.22;93.61
76794;BME280;65745;50.278;18.192;2024-02-28T00:06:20;99713.61;;;7.21;93.31
76794;BME280;65745;50.278;18.192;2024-02-28T00:08:52;99720.29;;;7.22;93.75
76794;BME280;65745;50.278;18.192;2024-02-28T00:11:25;99715.66;;;7.21;94.43
76794;BME280;65745;50.278;18.192;2024-02-28T00:13:57;99717.84;;;7.19;94.38
76794;BME280;65745;50.278;18.192;2024-02-28T00:16:31;99721.83;;;7.16;94.96
76794;BME280;65745;50.278;18.192;2024-02-28T00:19:03;99724.00;;;7.14;95.26
76794;BME280;65745;50.278;18.192;2024-02-28T00:21:35;99722.89;;;7.11;95.73
76794;BME280;65745;50.278;18.192;2024-02-28T00:24:08;99723.75;;;7.11;95.23
76794;BME280;65745;50.278;18.192;2024-02-28T00:26:43;99723.44;;;7.12;95.32
76794;BME280;65745;50.278;18.192;2024-02-28T00:29:15;99723.29;;;7.13;94.88
76794;BME280;65745;50.278;18.192;2024-02-28T00:31:47;99724.23;;;7.16;94.67
76794;BME280;65745;50.278;18.192;2024-02-28T00:34:19;99718.02;;;7.14;94.39
76794;BME280;65745;50.278;18.192;2024-02-28T00:36:52;99718.84;;;7.13;94.43
76794;BME280;65745;50.278;18.192;2024-02-28T00:39:26;99717.67;;;7.09;95.26
76794;BME280;65745;50.278;18.192;2024-02-28T00:41:58;99715.04;;;7.06;94.96
76794;BME280;65745;50.278;18.192;2024-02-28T00:44:31;99712.05;;;7.04;96.09
76794;BME280;65745;50.278;18.192;2024-02-28T00:47:03;99707.27;;;7.05;95.62
76794;BME280;65745;50.278;18.192;2024-02-28T00:49:35;99706.36;;;7.03;96.19
76794;BME280;65745;50.278;18.192;2024-02-28T00:52:07;99701.88;;;7.01;96.31
76794;BME280;65745;50.278;18.192;2024-02-28T00:54:40;99699.39;;;7.04;95.18
76794;BME280;65745;50.278;18.192;2024-02-28T00:57:12;99697.26;;;7.07;95.28
76794;BME280;65745;50.278;18.192;2024-02-28T00:59:44;99697.05;;;7.07;94.92
76794;BME280;65745;50.278;18.192;2024-02-28T01:02:16;99694.12;;;7.06;94.58
76794;BME280;65745;50.278;18.192;2024-02-28T01:04:48;99691.16;;;7.04;95.15
76794;BME280;65745;50.278;18.192;2024-02-28T01:07:21;99689.97;;;7.05;94.90
76794;BME280;65745;50.278;18.192;2024-02-28T01:09:53;99693.48;;;7.07;94.41
76794;BME280;65745;50.278;18.192;2024-02-28T01:12:25;99690.48;;;7.05;95.20
76794;BME280;65745;50.278;18.192;2024-02-28T01:14:58;99692.01;;;7.03;94.52
76794;BME280;65745;50.278;18.192;2024-02-28T01:17:30;99691.77;;;7.02;94.98
76794;BME280;65745;50.278;18.192;2024-02-28T01:20:02;99687.45;;;7.01;94.52
76794;BME280;65745;50.278;18.192;2024-02-28T01:22:35;99689.63;;;6.99;95.24
76794;BME280;65745;50.278;18.192;2024-02-28T01:25:08;99683.09;;;6.98;94.76
76794;BME280;65745;50.278;18.192;2024-02-28T01:27:40;99681.91;;;6.98;94.27
76794;BME280;65745;50.278;18.192;2024-02-28T01:30:14;99676.70;;;6.96;95.36
76794;BME280;65745;50.278;18.192;2024-02-28T01:32:46;99672.52;;;6.93;95.64
76794;BME280;65745;50.278;18.192;2024-02-28T01:35:19;99674.11;;;6.90;96.18
76794;BME280;65745;50.278;18.192;2024-02-28T01:37:51;99678.23;;;6.90;95.60
76794;BME280;65745;50.278;18.192;2024-02-28T01:40:23;99670.44;;;6.87;96.04
76794;BME280;65745;50.278;18.192;2024-02-28T01:43:01;99673.76;;;6.84;96.33
76794;BME280;65745;50.278;18.192;2024-02-28T01:45:34;99673.58;;;6.83;95.94
76794;BME280;65745;50.278;18.192;2024-02-28T01:48:09;99674.08;;;6.84;96.09
76794;BME280;65745;50.278;18.192;2024-02-28T01:50:43;99664.48;;;6.83;95.67
76794;BME280;65745;50.278;18.192;2024-02-28T01:53:16;99663.87;;;6.86;95.55
76794;BME280;65745;50.278;18.192;2024-02-28T01:55:51;99661.36;;;6.87;96.40
76794;BME280;65745;50.278;18.192;2024-02-28T01:58:24;99660.64;;;6.91;95.90
76794;BME280;65745;50.278;18.192;2024-02-28T02:00:57;99662.61;;;6.95;96.17
76794;BME280;65745;50.278;18.192;2024-02-28T02:03:30;99662.69;;;6.92;97.24
76794;BME280;65745;50.278;18.192;2024-02-28T02:06:05;99661.91;;;6.89;97.46
76794;BME280;65745;50.278;18.192;2024-02-28T02:08:39;99658.50;;;6.89;96.54
76794;BME280;65745;50.278;18.192;2024-02-28T02:11:11;99661.29;;;6.91;96.58
76794;BME280;65745;50.278;18.192;2024-02-28T02:13:50;99658.38;;;6.91;96.08
76794;BME280;65745;50.278;18.192;2024-02-28T02:16:22;99654.48;;;6.92;95.20
76794;BME280;65745;50.278;18.192;2024-02-28T02:18:57;99655.38;;;6.93;95.06
76794;BME280;65745;50.278;18.192;2024-02-28T02:21:35;99658.86;;;6.95;95.23
76794;BME280;65745;50.278;18.192;2024-02-28T02:24:09;99659.55;;;6.95;95.17
76794;BME280;65745;50.278;18.192;2024-02-28T02:26:41;99666.92;;;6.96;94.82
76794;BME280;65745;50.278;18.192;2024-02-28T02:29:16;99667.73;;;6.94;95.62
76794;BME280;65745;50.278;18.192;2024-02-28T02:31:48;99669.20;;;6.92;96.17
76794;BME280;65745;50.278;18.192;2024-02-28T02:34:21;99669.96;;;6.89;96.89
76794;BME280;65745;50.278;18.192;2024-02-28T02:36:53;99673.71;;;6.88;96.68
76794;BME280;65745;50.278;18.192;2024-02-28T02:39:25;99673.18;;;6.88;96.46
76794;BME280;65745;50.278;18.192;2024-02-28T02:41:57;99672.82;;;6.87;96.36
76794;BME280;65745;50.278;18.192;2024-02-28T02:44:29;99672.09;;;6.85;96.93
76794;BME280;65745;50.278;18.192;2024-02-28T02:47:01;99673.12;;;6.86;96.34
76794;BME280;65745;50.278;18.192;2024-02-28T02:49:34;99676.62;;;6.88;95.76
76794;BME280;65745;50.278;18.192;2024-02-28T02:52:06;99680.35;;;6.87;96.02
76794;BME280;65745;50.278;18.192;2024-02-28T02:54:39;99680.30;;;6.86;95.93
76794;BME280;65745;50.278;18.192;2024-02-28T02:57:11;99680.77;;;6.84;96.79
76794;BME280;65745;50.278;18.192;2024-02-28T02:59:43;99686.54;;;6.87;96.59
76794;BME280;65745;50.278;18.192;2024-02-28T03:02:15;99683.11;;;6.88;96.18
76794;BME280;65745;50.278;18.192;2024-02-28T03:04:47;99686.86;;;6.87;96.53
76794;BME280;65745;50.278;18.192;2024-02-28T03:07:20;99688.04;;;6.86;96.74
76794;BME280;65745;50.278;18.192;2024-02-28T03:09:52;99692.39;;;6.83;98.08
76794;BME280;65745;50.278;18.192;2024-02-28T03:12:24;99694.98;;;6.84;97.15
76794;BME280;65745;50.278;18.192;2024-02-28T03:14:56;99694.62;;;6.83;96.41
76794;BME280;65745;50.278;18.192;2024-02-28T03:17:28;99692.73;;;6.83;96.82
76794;BME280;65745;50.278;18.192;2024-02-28T03:20:00;99692.70;;;6.82;96.35
76794;BME280;65745;50.278;18.192;2024-02-28T03:22:33;99692.51;;;6.81;96.80
76794;BME280;65745;50.278;18.192;2024-02-28T03:25:07;99693.51;;;6.81;96.84
76794;BME280;65745;50.278;18.192;2024-02-28T03:27:39;99697.08;;;6.80;96.66
76794;BME280;65745;50.278;18.192;2024-02-28T03:30:12;99699.35;;;6.81;96.81
76794;BME280;65745;50.278;18.192;2024-02-28T03:32:44;99701.93;;;6.81;97.02
76794;BME280;65745;50.278;18.192;2024-02-28T03:35:16;99702.18;;;6.85;97.00
76794;BME280;65745;50.278;18.192;2024-02-28T03:37:48;99703.21;;;6.85;97.68
76794;BME280;65745;50.278;18.192;2024-02-28T03:40:21;99700.66;;;6.85;97.99
76794;BME280;65745;50.278;18.192;2024-02-28T03:42:53;99705.23;;;6.84;98.34
76794;BME280;65745;50.278;18.192;2024-02-28T03:45:27;99705.42;;;6.84;98.15
76794;BME280;65745;50.278;18.192;2024-02-28T03:48:00;99708.70;;;6.84;98.25
76794;BME280;65745;50.278;18.192;2024-02-28T03:50:32;99705.80;;;6.85;98.16
76794;BME280;65745;50.278;18.192;2024-02-28T03:53:05;99711.02;;;6.88;97.75
76794;BME280;65745;50.278;18.192;2024-02-28T03:55:37;99712.56;;;6.88;97.36
76794;BME280;65745;50.278;18.192;2024-02-28T03:58:10;99711.91;;;6.89;96.87
76794;BME280;65745;50.278;18.192;2024-02-28T04:00:42;99716.56;;;6.90;96.77
76794;BME280;65745;50.278;18.192;2024-02-28T04:03:15;99716.54;;;6.89;96.91
76794;BME280;65745;50.278;18.192;2024-02-28T04:05:48;99724.75;;;6.89;97.78
76794;BME280;65745;50.278;18.192;2024-02-28T04:08:20;99723.48;;;6.87;97.69
76794;BME280;65745;50.278;18.192;2024-02-28T04:10:52;99724.10;;;6.84;97.35
76794;BME280;65745;50.278;18.192;2024-02-28T04:13:24;99724.00;;;6.81;97.60
76794;BME280;65745;50.278;18.192;2024-02-28T04:15:56;99724.55;;;6.82;97.03
76794;BME280;65745;50.278;18.192;2024-02-28T04:18:29;99724.05;;;6.83;97.15
76794;BME280;65745;50.278;18.192;2024-02-28T04:21:01;99725.52;;;6.81;96.81
76794;BME280;65745;50.278;18.192;2024-02-28T04:23:33;99731.20;;;6.81;96.47
76794;BME280;65745;50.278;18.192;2024-02-28T04:26:06;99731.70;;;6.81;96.33
76794;BME280;65745;50.278;18.192;2024-02-28T04:28:38;99732.16;;;6.80;96.63
76794;BME280;65745;50.278;18.192;2024-02-28T04:31:10;99732.48;;;6.79;97.10
76794;BME280;65745;50.278;18.192;2024-02-28T04:33:42;99733.35;;;6.79;97.05
76794;BME280;65745;50.278;18.192;2024-02-28T04:36:15;99734.09;;;6.81;97.29
76794;BME280;65745;50.278;18.192;2024-02-28T04:38:48;99735.15;;;6.82;97.57
76794;BME280;65745;50.278;18.192;2024-02-28T04:41:20;99737.27;;;6.85;97.29
76794;BME280;65745;50.278;18.192;2024-02-28T04:43:52;99738.76;;;6.82;97.69
76794;BME280;65745;50.278;18.192;2024-02-28T04:46:24;99740.98;;;6.82;97.31
76794;BME280;65745;50.278;18.192;2024-02-28T04:48:57;99737.35;;;6.87;97.49
76794;BME280;65745;50.278;18.192;2024-02-28T04:51:29;99739.48;;;6.89;96.95
76794;BME280;65745;50.278;18.192;2024-02-28T04:54:01;99740.49;;;6.89;97.51
76794;BME280;65745;50.278;18.192;2024-02-28T04:56:38;99742.23;;;6.90;97.14
76794;BME280;65745;50.278;18.192;2024-02-28T04:59:12;99746.40;;;6.91;97.15
76794;BME280;65745;50.278;18.192;2024-02-28T05:01:44;99746.20;;;6.91;96.85
76794;BME280;65745;50.278;18.192;2024-02-28T05:04:17;99749.91;;;6.94;96.70
76794;BME280;65745;50.278;18.192;2024-02-28T05:06:50;99752.87;;;6.96;96.42
76794;BME280;65745;50.278;18.192;2024-02-28T05:09:22;99758.77;;;6.98;96.08
76794;BME280;65745;50.278;18.192;2024-02-28T05:11:54;99762.16;;;6.97;96.35
76794;BME280;65745;50.278;18.192;2024-02-28T05:14:26;99764.63;;;6.98;96.29
76794;BME280;65745;50.278;18.192;2024-02-28T05:16:59;99764.13;;;6.99;96.36
76794;BME280;65745;50.278;18.192;2024-02-28T05:19:31;99765.13;;;6.98;96.67
76794;BME280;65745;50.278;18.192;2024-02-28T05:22:03;99766.64;;;6.97;96.56
76794;BME280;65745;50.278;18.192;2024-02-28T05:24:35;99771.70;;;6.95;96.93
76794;BME280;65745;50.278;18.192;2024-02-28T05:27:08;99770.65;;;6.89;97.70
76794;BME280;65745;50.278;18.192;2024-02-28T05:29:40;99771.81;;;6.88;97.41
76794;BME280;65745;50.278;18.192;2024-02-28T05:32:13;99773.33;;;6.88;97.57
76794;BME280;65745;50.278;18.192;2024-02-28T05:34:47;99781.30;;;6.90;97.06
76794;BME280;65745;50.278;18.192;2024-02-28T05:37:19;99781.89;;;6.92;97.03
76794;BME280;65745;50.278;18.192;2024-02-28T05:39:51;99780.23;;;6.89;97.63
76794;BME280;65745;50.278;18.192;2024-02-28T05:42:23;99777.80;;;6.88;97.15
76794;BME280;65745;50.278;18.192;2024-02-28T05:44:56;99783.79;;;6.88;97.14
76794;BME280;65745;50.278;18.192;2024-02-28T05:47:28;99778.39;;;6.85;97.98
76794;BME280;65745;50.278;18.192;2024-02-28T05:50:00;99778.56;;;6.90;97.71
76794;BME280;65745;50.278;18.192;2024-02-28T05:52:33;99779.86;;;6.94;97.27
76794;BME280;65745;50.278;18.192;2024-02-28T05:55:06;99782.13;;;6.95;97.19
76794;BME280;65745;50.278;18.192;2024-02-28T05:57:39;99785.55;;;6.95;96.45
76794;BME280;65745;50.278;18.192;2024-02-28T06:00:13;99787.25;;;6.95;96.18
76794;BME280;65745;50.278;18.192;2024-02-28T06:02:45;99791.69;;;6.94;96.33
76794;BME280;65745;50.278;18.192;2024-02-28T06:05:17;99793.77;;;6.94;96.30
76794;BME280;65745;50.278;18.192;2024-02-28T06:07:50;99799.73;;;6.93;95.86
76794;BME280;65745;50.278;18.192;2024-02-28T06:10:22;99797.31;;;6.93;95.68
76794;BME280;65745;50.278;18.192;2024-02-28T06:12:55;99800.08;;;6.94;95.52
76794;BME280;65745;50.278;18.192;2024-02-28T06:15:27;99801.28;;;6.94;95.56
76794;BME280;65745;50.278;18.192;2024-02-28T06:18:00;99808.50;;;6.95;95.77
76794;BME280;65745;50.278;18.192;2024-02-28T06:20:33;99806.77;;;6.94;96.06
76794;BME280;65745;50.278;18.192;2024-02-28T06:23:06;99806.84;;;6.97;95.58
76794;BME280;65745;50.278;18.192;2024-02-28T06:25:49;99813.02;;;6.97;96.33
76794;BME280;65745;50.278;18.192;2024-02-28T06:28:22;99818.97;;;6.96;96.43
76794;BME280;65745;50.278;18.192;2024-02-28T06:30:54;99822.02;;;6.95;96.09
76794;BME280;65745;50.278;18.192;2024-02-28T06:33:26;99827.89;;;6.96;96.31
76794;BME280;65745;50.278;18.192;2024-02-28T06:35:58;99830.94;;;6.95;96.00
76794;BME280;65745;50.278;18.192;2024-02-28T06:38:31;99829.05;;;6.95;95.89
76794;BME280;65745;50.278;18.192;2024-02-28T06:41:04;99825.27;;;6.94;96.30
76794;BME280;65745;50.278;18.192;2024-02-28T06:43:36;99827.04;;;6.97;95.74
76794;BME280;65745;50.278;18.192;2024-02-28T06:46:09;99829.11;;;6.97;95.81
76794;BME280;65745;50.278;18.192;2024-02-28T06:48:41;99829.83;;;6.98;96.23
76794;BME280;65745;50.278;18.192;2024-02-28T06:51:13;99835.98;;;6.97;96.91
76794;BME280;65745;50.278;18.192;2024-02-28T06:53:48;99835.58;;;7.01;96.61
76794;BME280;65745;50.278;18.192;2024-02-28T06:56:20;99837.56;;;7.04;96.35
76794;BME280;65745;50.278;18.192;2024-02-28T06:58:52;99837.79;;;7.06;96.87
76794;BME280;65745;50.278;18.192;2024-02-28T07:01:24;99840.25;;;7.07;96.70
76794;BME280;65745;50.278;18.192;2024-02-28T07:03:56;99839.81;;;7.10;96.23
76794;BME280;65745;50.278;18.192;2024-02-28T07:06:29;99841.70;;;7.09;96.39
76794;BME280;65745;50.278;18.192;2024-02-28T07:09:01;99843.44;;;7.11;96.09
76794;BME280;65745;50.278;18.192;2024-02-28T07:11:33;99851.21;;;7.13;95.83
76794;BME280;65745;50.278;18.192;2024-02-28T07:14:06;99851.61;;;7.14;96.17
76794;BME280;65745;50.278;18.192;2024-02-28T07:16:39;99854.61;;;7.17;96.54
76794;BME280;65745;50.278;18.192;2024-02-28T07:19:11;99853.67;;;7.20;96.53
76794;BME280;65745;50.278;18.192;2024-02-28T07:21:43;99851.05;;;7.23;96.89
76794;BME280;65745;50.278;18.192;2024-02-28T07:24:16;99848.27;;;7.28;96.83
76794;BME280;65745;50.278;18.192;2024-02-28T07:26:48;99852.73;;;7.28;97.55
76794;BME280;65745;50.278;18.192;2024-02-28T07:29:21;99859.35;;;7.32;97.00
76794;BME280;65745;50.278;18.192;2024-02-28T07:31:53;99856.84;;;7.33;96.39
76794;BME280;65745;50.278;18.192;2024-02-28T07:34:26;99859.30;;;7.35;96.58
76794;BME280;65745;50.278;18.192;2024-02-28T07:36:58;99861.97;;;7.38;96.35
76794;BME280;65745;50.278;18.192;2024-02-28T07:39:30;99863.97;;;7.42;96.29
76794;BME280;65745;50.278;18.192;2024-02-28T07:42:03;99865.48;;;7.46;96.07
76794;BME280;65745;50.278;18.192;2024-02-28T07:44:35;99861.89;;;7.52;96.24
76794;BME280;65745;50.278;18.192;2024-02-28T07:47:08;99863.22;;;7.56;95.96
76794;BME280;65745;50.278;18.192;2024-02-28T07:49:41;99868.89;;;7.62;96.05
76794;BME280;65745;50.278;18.192;2024-02-28T07:52:13;99869.17;;;7.65;95.99
76794;BME280;65745;50.278;18.192;2024-02-28T07:54:45;99869.82;;;7.64;96.78
76794;BME280;65745;50.278;18.192;2024-02-28T07:57:19;99867.13;;;7.72;95.96
76794;BME280;65745;50.278;18.192;2024-02-28T07:59:51;99869.52;;;7.77;96.03
76794;BME280;65745;50.278;18.192;2024-02-28T08:02:23;99868.71;;;7.84;95.86
76794;BME280;65745;50.278;18.192;2024-02-28T08:04:56;99873.71;;;7.90;95.49
76794;BME280;65745;50.278;18.192;2024-02-28T08:07:28;99873.81;;;7.94;95.34
76794;BME280;65745;50.278;18.192;2024-02-28T08:10:00;99880.20;;;7.95;95.51
76794;BME280;65745;50.278;18.192;2024-02-28T08:12:33;99880.10;;;7.97;95.42
76794;BME280;65745;50.278;18.192;2024-02-28T08:15:06;99881.64;;;7.98;95.21
76794;BME280;65745;50.278;18.192;2024-02-28T08:17:38;99878.45;;;8.00;95.19
76794;BME280;65745;50.278;18.192;2024-02-28T08:20:11;99878.14;;;8.00;95.38
76794;BME280;65745;50.278;18.192;2024-02-28T08:22:44;99878.83;;;8.06;95.45
76794;BME280;65745;50.278;18.192;2024-02-28T08:25:17;99881.77;;;8.13;94.95
76794;BME280;65745;50.278;18.192;2024-02-28T08:27:49;99884.45;;;8.17;94.97
76794;BME280;65745;50.278;18.192;2024-02-28T08:30:21;99887.41;;;8.19;95.07
76794;BME280;65745;50.278;18.192;2024-02-28T08:32:53;99890.80;;;8.23;95.02
76794;BME280;65745;50.278;18.192;2024-02-28T08:35:25;99890.80;;;8.23;94.80
76794;BME280;65745;50.278;18.192;2024-02-28T08:37:58;99892.79;;;8.21;94.81
76794;BME280;65745;50.278;18.192;2024-02-28T08:40:30;99897.89;;;8.20;94.69
76794;BME280;65745;50.278;18.192;2024-02-28T08:43:02;99904.55;;;8.19;95.01
76794;BME280;65745;50.278;18.192;2024-02-28T08:45:34;99907.48;;;8.19;94.79
76794;BME280;65745;50.278;18.192;2024-02-28T08:48:09;99911.95;;;8.13;95.04
76794;BME280;65745;50.278;18.192;2024-02-28T08:50:41;99914.14;;;8.18;94.87
76794;BME280;65745;50.278;18.192;2024-02-28T08:53:14;99914.80;;;8.22;94.98
76794;BME280;65745;50.278;18.192;2024-02-28T08:55:46;99913.13;;;8.24;94.88
76794;BME280;65745;50.278;18.192;2024-02-28T08:58:19;99912.73;;;8.27;94.40
76794;BME280;65745;50.278;18.192;2024-02-28T09:00:51;99915.02;;;8.29;94.46
76794;BME280;65745;50.278;18.192;2024-02-28T09:03:25;99910.59;;;8.30;94.33
76794;BME280;65745;50.278;18.192;2024-02-28T09:05:57;99913.10;;;8.29;94.30
76794;BME280;65745;50.278;18.192;2024-02-28T09:08:29;99917.92;;;8.29;94.38
76794;BME280;65745;50.278;18.192;2024-02-28T09:11:01;99920.64;;;8.33;94.41
76794;BME280;65745;50.278;18.192;2024-02-28T09:13:36;99924.80;;;8.35;94.03
76794;BME280;65745;50.278;18.192;2024-02-28T09:16:08;99926.21;;;8.36;94.05
76794;BME280;65745;50.278;18.192;2024-02-28T09:18:40;99923.87;;;8.38;94.03
76794;BME280;65745;50.278;18.192;2024-02-28T09:21:13;99928.54;;;8.39;93.91
76794;BME280;65745;50.278;18.192;2024-02-28T09:23:46;99932.35;;;8.41;93.81
76794;BME280;65745;50.278;18.192;2024-02-28T09:26:18;99926.42;;;8.43;93.85
76794;BME280;65745;50.278;18.192;2024-02-28T09:29:08;99924.23;;;8.45;93.86
76794;BME280;65745;50.278;18.192;2024-02-28T09:31:40;99925.42;;;8.50;93.70
76794;BME280;65745;50.278;18.192;2024-02-28T09:34:30;99922.89;;;8.58;93.79
76794;BME280;65745;50.278;18.192;2024-02-28T09:37:02;99926.05;;;8.66;93.47
76794;BME280;65745;50.278;18.192;2024-02-28T09:39:35;99924.22;;;8.68;93.60
76794;BME280;65745;50.278;18.192;2024-02-28T09:42:10;99924.34;;;8.72;93.61
76794;BME280;65745;50.278;18.192;2024-02-28T09:44:44;99931.81;;;8.76;93.47
76794;BME280;65745;50.278;18.192;2024-02-28T09:47:17;99937.04;;;8.78;93.38
76794;BME280;65745;50.278;18.192;2024-02-28T09:49:51;99944.80;;;8.80;93.48
76794;BME280;65745;50.278;18.192;2024-02-28T09:52:25;99940.25;;;8.83;93.28
76794;BME280;65745;50.278;18.192;2024-02-28T09:54:58;99945.19;;;8.81;93.55
76794;BME280;65745;50.278;18.192;2024-02-28T09:57:31;99944.88;;;8.82;93.27
76794;BME280;65745;50.278;18.192;2024-02-28T10:00:05;99950.06;;;8.83;93.14
76794;BME280;65745;50.278;18.192;2024-02-28T10:02:41;99957.52;;;8.86;93.29
76794;BME280;65745;50.278;18.192;2024-02-28T10:05:15;99951.38;;;8.88;93.14
76794;BME280;65745;50.278;18.192;2024-02-28T10:07:51;99958.39;;;8.87;92.99
76794;BME280;65745;50.278;18.192;2024-02-28T10:10:24;99960.40;;;8.84;93.00
76794;BME280;65745;50.278;18.192;2024-02-28T10:12:58;99958.95;;;8.82;93.14
76794;BME280;65745;50.278;18.192;2024-02-28T10:15:32;99962.44;;;8.84;92.95
76794;BME280;65745;50.278;18.192;2024-02-28T10:18:05;99965.58;;;8.86;93.11
76794;BME280;65745;50.278;18.192;2024-02-28T10:20:37;99968.23;;;8.82;92.99
76794;BME280;65745;50.278;18.192;2024-02-28T10:23:10;99974.23;;;8.82;92.97
76794;BME280;65745;50.278;18.192;2024-02-28T10:25:46;99976.89;;;8.84;92.91
76794;BME280;65745;50.278;18.192;2024-02-28T10:28:27;99972.55;;;8.89;92.93
76794;BME280;65745;50.278;18.192;2024-02-28T10:30:59;99969.62;;;8.89;92.73
76794;BME280;65745;50.278;18.192;2024-02-28T10:33:33;99967.20;;;8.95;92.73
76794;BME280;65745;50.278;18.192;2024-02-28T10:36:08;99965.94;;;9.05;92.44
76794;BME280;65745;50.278;18.192;2024-02-28T10:38:41;99965.62;;;9.13;92.54
76794;BME280;65745;50.278;18.192;2024-02-28T10:41:14;99965.46;;;9.19;92.36
76794;BME280;65745;50.278;18.192;2024-02-28T10:43:48;99965.98;;;9.26;92.59
76794;BME280;65745;50.278;18.192;2024-02-28T10:46:21;99963.80;;;9.35;92.26
76794;BME280;65745;50.278;18.192;2024-02-28T10:49:07;99970.38;;;9.43;92.33
76794;BME280;65745;50.278;18.192;2024-02-28T10:51:41;99966.54;;;9.54;92.46
76794;BME280;65745;50.278;18.192;2024-02-28T10:54:18;99973.07;;;9.61;92.13
76794;BME280;65745;50.278;18.192;2024-02-28T10:56:53;99972.52;;;9.66;91.71
76794;BME280;65745;50.278;18.192;2024-02-28T10:59:26;99967.50;;;9.72;91.52
76794;BME280;65745;50.278;18.192;2024-02-28T11:02:00;99974.15;;;9.77;91.33
76794;BME280;65745;50.278;18.192;2024-02-28T11:04:33;99976.96;;;9.80;91.19
76794;BME280;65745;50.278;18.192;2024-02-28T11:07:07;99977.38;;;9.82;91.38
76794;BME280;65745;50.278;18.192;2024-02-28T11:09:42;99977.03;;;9.83;91.10
76794;BME280;65745;50.278;18.192;2024-02-28T11:12:27;99972.82;;;9.87;90.86
76794;BME280;65745;50.278;18.192;2024-02-28T11:15:01;99966.80;;;9.87;90.89
76794;BME280;65745;50.278;18.192;2024-02-28T11:17:33;99971.70;;;9.90;91.02
76794;BME280;65745;50.278;18.192;2024-02-28T11:20:14;99971.80;;;9.87;90.34
76794;BME280;65745;50.278;18.192;2024-02-28T11:22:47;99971.98;;;9.88;90.72
76794;BME280;65745;50.278;18.192;2024-02-28T11:25:19;99972.89;;;9.89;90.49
76794;BME280;65745;50.278;18.192;2024-02-28T11:27:52;99975.41;;;9.94;90.61
76794;BME280;65745;50.278;18.192;2024-02-28T11:30:26;99981.95;;;9.94;90.44
76794;BME280;65745;50.278;18.192;2024-02-28T11:32:58;99981.68;;;9.91;90.71
76794;BME280;65745;50.278;18.192;2024-02-28T11:35:36;99980.52;;;9.85;90.46
76794;BME280;65745;50.278;18.192;2024-02-28T11:38:09;99979.92;;;9.81;90.30
76794;BME280;65745;50.278;18.192;2024-02-28T11:40:51;99978.31;;;9.78;90.39
76794;BME280;65745;50.278;18.192;2024-02-28T11:43:23;99981.58;;;9.78;90.58
76794;BME280;65745;50.278;18.192;2024-02-28T11:45:57;99981.43;;;9.79;90.38
76794;BME280;65745;50.278;18.192;2024-02-28T11:48:29;99987.45;;;9.80;90.32
76794;BME280;65745;50.278;18.192;2024-02-28T11:51:04;99990.38;;;9.80;90.19
76794;BME280;65745;50.278;18.192;2024-02-28T11:53:36;99989.23;;;9.82;90.10
76794;BME280;65745;50.278;18.192;2024-02-28T11:56:08;99990.11;;;9.83;90.02
76794;BME280;65745;50.278;18.192;2024-02-28T11:58:50;99992.77;;;9.79;90.10
76794;BME280;65745;50.278;18.192;2024-02-28T12:01:35;99987.70;;;9.76;90.07
76794;BME280;65745;50.278;18.192;2024-02-28T12:04:08;99988.14;;;9.72;90.39
76794;BME280;65745;50.278;18.192;2024-02-28T12:06:42;99990.75;;;9.73;90.34
76794;BME280;65745;50.278;18.192;2024-02-28T12:09:16;99989.20;;;9.74;90.41
76794;BME280;65745;50.278;18.192;2024-02-28T12:12:03;99991.57;;;9.72;90.43
76794;BME280;65745;50.278;18.192;2024-02-28T12:14:39;99983.73;;;9.68;90.29
76794;BME280;65745;50.278;18.192;2024-02-28T12:17:13;99985.52;;;9.64;90.16
76794;BME280;65745;50.278;18.192;2024-02-28T12:19:45;99992.50;;;9.61;90.19
76794;BME280;65745;50.278;18.192;2024-02-28T12:22:17;99994.41;;;9.55;90.33
76794;BME280;65745;50.278;18.192;2024-02-28T12:24:50;99991.70;;;9.50;90.35
76794;BME280;65745;50.278;18.192;2024-02-28T12:27:22;99994.23;;;9.49;90.52
76794;BME280;65745;50.278;18.192;2024-02-28T12:29:54;99995.77;;;9.48;90.53
76794;BME280;65745;50.278;18.192;2024-02-28T12:32:27;99994.57;;;9.48;90.49
76794;BME280;65745;50.278;18.192;2024-02-28T12:34:59;99998.70;;;9.48;90.50
76794;BME280;65745;50.278;18.192;2024-02-28T12:37:31;100002.67;;;9.50;90.54
76794;BME280;65745;50.278;18.192;2024-02-28T12:40:04;100004.02;;;9.47;90.91
76794;BME280;65745;50.278;18.192;2024-02-28T12:42:37;100003.60;;;9.45;90.76
76794;BME280;65745;50.278;18.192;2024-02-28T12:45:11;100009.75;;;9.43;90.67
76794;BME280;65745;50.278;18.192;2024-02-28T12:47:43;100012.28;;;9.42;91.00
76794;BME280;65745;50.278;18.192;2024-02-28T12:50:18;100012.69;;;9.37;90.72
76794;BME280;65745;50.278;18.192;2024-02-28T12:52:53;100016.39;;;9.34;90.77
76794;BME280;65745;50.278;18.192;2024-02-28T12:55:25;100013.39;;;9.31;91.05
76794;BME280;65745;50.278;18.192;2024-02-28T12:57:57;100017.67;;;9.31;90.88
76794;BME280;65745;50.278;18.192;2024-02-28T13:00:30;100016.98;;;9.30;90.97
76794;BME280;65745;50.278;18.192;2024-02-28T13:03:04;100019.59;;;9.32;91.10
76794;BME280;65745;50.278;18.192;2024-02-28T13:05:37;100022.02;;;9.33;91.22
76794;BME280;65745;50.278;18.192;2024-02-28T13:08:09;100023.95;;;9.34;91.01
76794;BME280;65745;50.278;18.192;2024-02-28T13:10:42;100026.98;;;9.31;91.04
76794;BME280;65745;50.278;18.192;2024-02-28T13:13:14;100033.23;;;9.27;91.30
76794;BME280;65745;50.278;18.192;2024-02-28T13:15:47;100027.27;;;9.23;91.30
76794;BME280;65745;50.278;18.192;2024-02-28T13:18:19;100028.29;;;9.23;91.27
76794;BME280;65745;50.278;18.192;2024-02-28T13:20:52;100026.86;;;9.21;91.08
76794;BME280;65745;50.278;18.192;2024-02-28T13:23:24;100026.80;;;9.19;91.50
76794;BME280;65745;50.278;18.192;2024-02-28T13:25:57;100031.35;;;9.16;91.27
76794;BME280;65745;50.278;18.192;2024-02-28T13:28:29;100029.73;;;9.13;91.26
76794;BME280;65745;50.278;18.192;2024-02-28T13:31:02;100027.45;;;9.12;91.34